createdAt,value
2022-12-18T00:01:34.764Z,95.74
2022-12-18T00:04:04.149Z,95.69
2022-12-18T00:06:31.132Z,95.78
2022-12-18T00:08:59.157Z,96.09
2022-12-18T00:11:28.655Z,95.59
2022-12-18T00:13:57.087Z,95.55
2022-12-18T00:16:25.648Z,95.94
2022-12-18T00:18:55.358Z,95.39
2022-12-18T00:21:22.303Z,95.98
2022-12-18T00:23:50.294Z,95.87
2022-12-18T00:26:23.327Z,95.66
2022-12-18T00:28:50.519Z,96.01
2022-12-18T00:31:20.501Z,95.81
2022-12-18T00:33:47.527Z,95.93
2022-12-18T00:36:18.627Z,95.78
2022-12-18T00:38:45.687Z,95.79
2022-12-18T00:41:14.403Z,95.87
2022-12-18T00:43:41.354Z,95.78
2022-12-18T00:46:08.161Z,96.14
2022-12-18T00:48:34.755Z,95.81
2022-12-18T00:51:01.143Z,95.55
2022-12-18T00:53:27.706Z,95.76
2022-12-18T00:55:54.164Z,95.71
2022-12-18T00:58:20.555Z,95.97
2022-12-18T01:00:47.187Z,95.77
2022-12-18T01:03:15.163Z,95.71
2022-12-18T01:05:43.068Z,96.05
2022-12-18T01:08:10.322Z,96.01
2022-12-18T01:10:36.758Z,95.70
2022-12-18T01:13:03.234Z,95.82
2022-12-18T01:15:29.719Z,96.06
2022-12-18T01:17:56.213Z,95.75
2022-12-18T01:20:22.648Z,95.70
2022-12-18T01:22:49.084Z,95.29
2022-12-18T01:25:15.547Z,95.60
2022-12-18T01:27:42.163Z,95.60
2022-12-18T01:30:09.042Z,95.69
2022-12-18T01:32:35.494Z,95.76
2022-12-18T01:35:01.919Z,95.59
2022-12-18T01:37:28.423Z,95.67
2022-12-18T01:39:55.576Z,95.70
2022-12-18T01:42:22.866Z,95.51
2022-12-18T01:45:17.276Z,95.48
2022-12-18T01:47:47.558Z,95.20
2022-12-18T01:50:28.103Z,95.46
2022-12-18T01:53:11.681Z,95.17
2022-12-18T01:55:46.298Z,95.04
2022-12-18T01:58:12.969Z,95.07
2022-12-18T02:00:39.677Z,94.92
2022-12-18T02:03:06.281Z,94.96
2022-12-18T02:05:58.376Z,94.75
2022-12-18T02:08:43.489Z,94.72
2022-12-18T02:11:38.696Z,94.88
2022-12-18T02:14:39.325Z,94.82
2022-12-18T02:17:30.643Z,95.02
2022-12-18T02:20:03.857Z,94.71
2022-12-18T02:22:45.813Z,94.55
2022-12-18T02:25:21.368Z,94.73
2022-12-18T02:27:50.235Z,94.49
2022-12-18T02:30:17.130Z,94.67
2022-12-18T02:32:49.567Z,94.56
2022-12-18T02:35:23.184Z,94.82
2022-12-18T02:37:50.162Z,94.38
2022-12-18T02:40:18.182Z,94.68
2022-12-18T02:42:44.656Z,94.41
2022-12-18T02:45:11.251Z,94.35
2022-12-18T02:47:40.059Z,94.42
2022-12-18T02:50:34.507Z,94.39
2022-12-18T02:53:28.644Z,94.52
2022-12-18T02:56:14.853Z,94.50
2022-12-18T02:59:09.595Z,94.50
2022-12-18T03:01:36.192Z,94.40
2022-12-18T03:04:09.065Z,94.37
2022-12-18T03:06:42.679Z,94.22
2022-12-18T03:09:18.625Z,94.15
2022-12-18T03:12:10.244Z,94.07
2022-12-18T03:14:39.187Z,94.24
2022-12-18T03:17:11.784Z,94.14
2022-12-18T03:19:40.220Z,93.79
2022-12-18T03:22:09.263Z,93.99
2022-12-18T03:24:39.891Z,94.00
2022-12-18T03:27:12.061Z,94.13
2022-12-18T03:29:43.498Z,94.36
2022-12-18T03:32:20.512Z,94.47
2022-12-18T03:34:50.829Z,94.25
2022-12-18T03:37:17.434Z,94.34
2022-12-18T03:39:43.904Z,94.15
2022-12-18T03:42:29.753Z,94.11
2022-12-18T03:45:20.808Z,94.46
2022-12-18T03:48:04.662Z,94.22
2022-12-18T03:50:59.187Z,94.25
2022-12-18T03:53:32.327Z,94.59
2022-12-18T03:56:01.147Z,94.48
2022-12-18T03:58:29.954Z,94.19
2022-12-18T04:01:00.589Z,94.26
2022-12-18T04:03:29.325Z,94.62
2022-12-18T04:05:57.710Z,94.38
2022-12-18T04:08:25.696Z,94.68
2022-12-18T04:10:52.326Z,94.63
2022-12-18T04:13:29.008Z,94.58
2022-12-18T04:15:55.485Z,94.45
2022-12-18T04:18:22.178Z,94.64
2022-12-18T04:20:48.530Z,94.44
2022-12-18T04:23:14.985Z,94.68
2022-12-18T04:25:41.642Z,94.65
2022-12-18T04:28:08.102Z,94.25
2022-12-18T04:30:34.606Z,94.61
2022-12-18T04:33:00.990Z,94.51
2022-12-18T04:35:27.679Z,94.59
2022-12-18T04:37:54.369Z,94.48
2022-12-18T04:40:20.747Z,94.21
2022-12-18T04:42:47.162Z,94.24
2022-12-18T04:45:13.845Z,94.09
2022-12-18T04:47:40.346Z,94.26
2022-12-18T04:50:07.203Z,93.98
2022-12-18T04:52:33.571Z,94.10
2022-12-18T04:54:59.984Z,94.08
2022-12-18T04:57:27.091Z,94.52
2022-12-18T04:59:53.472Z,94.10
2022-12-18T05:02:19.979Z,94.22
2022-12-18T05:04:46.581Z,94.42
2022-12-18T05:07:13.166Z,94.40
2022-12-18T05:09:39.598Z,94.09
2022-12-18T05:12:06.285Z,94.17
2022-12-18T05:14:32.742Z,94.06
2022-12-18T05:17:01.067Z,94.04
2022-12-18T05:19:27.826Z,93.89
2022-12-18T05:21:54.357Z,94.17
2022-12-18T05:24:20.793Z,93.94
2022-12-18T05:26:47.472Z,94.18
2022-12-18T05:29:14.161Z,93.87
2022-12-18T05:31:41.144Z,94.28
2022-12-18T05:34:09.533Z,94.10
2022-12-18T05:36:37.094Z,94.01
2022-12-18T05:39:03.768Z,94.44
2022-12-18T05:41:30.950Z,93.75
2022-12-18T05:43:57.656Z,93.92
2022-12-18T05:46:25.241Z,94.31
2022-12-18T05:48:52.113Z,94.25
2022-12-18T05:51:21.911Z,94.27
2022-12-18T05:53:49.169Z,94.58
2022-12-18T05:56:19.271Z,94.32
2022-12-18T05:58:46.060Z,94.52
2022-12-18T06:01:19.391Z,94.47
2022-12-18T06:03:46.546Z,94.08
2022-12-18T06:06:15.180Z,93.81
2022-12-18T06:08:46.170Z,93.96
2022-12-18T06:11:14.178Z,94.25
2022-12-18T06:13:40.937Z,93.85
2022-12-18T06:16:08.939Z,94.40
2022-12-18T06:18:38.971Z,94.11
2022-12-18T06:21:05.568Z,94.35
2022-12-18T06:23:31.972Z,93.97
2022-12-18T06:25:58.427Z,93.68
2022-12-18T06:28:24.833Z,94.07
2022-12-18T06:30:51.836Z,94.05
2022-12-18T06:33:18.371Z,93.58
2022-12-18T06:35:44.815Z,93.83
2022-12-18T06:38:11.316Z,93.81
2022-12-18T06:40:39.812Z,93.78
2022-12-18T06:43:07.394Z,94.03
2022-12-18T06:45:34.081Z,93.51
2022-12-18T06:48:01.115Z,93.99
2022-12-18T06:50:27.816Z,93.98
2022-12-18T06:52:54.331Z,93.45
2022-12-18T06:55:20.932Z,93.62
2022-12-18T06:57:47.396Z,93.74
2022-12-18T07:00:14.535Z,93.16
2022-12-18T07:02:41.632Z,93.53
2022-12-18T07:05:10.868Z,93.97
2022-12-18T07:07:37.923Z,93.68
2022-12-18T07:10:04.875Z,93.47
2022-12-18T07:12:31.318Z,93.66
2022-12-18T07:14:57.791Z,93.21
2022-12-18T07:17:24.373Z,93.20
2022-12-18T07:19:50.824Z,93.54
2022-12-18T07:22:17.355Z,93.46
2022-12-18T07:24:43.756Z,93.59
2022-12-18T07:27:10.128Z,93.48
2022-12-18T07:29:36.870Z,93.66
2022-12-18T07:32:04.589Z,93.10
2022-12-18T07:34:31.159Z,93.75
2022-12-18T07:36:57.583Z,93.91
2022-12-18T07:39:24.174Z,93.79
2022-12-18T07:42:10.544Z,93.66
2022-12-18T07:44:37.243Z,94.07
2022-12-18T07:47:06.653Z,93.93
2022-12-18T07:49:37.482Z,93.50
2022-12-18T07:52:04.091Z,93.84
2022-12-18T07:54:30.542Z,93.97
2022-12-18T07:56:56.990Z,93.94
2022-12-18T07:59:23.562Z,93.80
2022-12-18T08:01:50.004Z,93.91
2022-12-18T08:04:16.540Z,94.17
2022-12-18T08:06:47.601Z,93.99
2022-12-18T08:09:14.682Z,94.14
2022-12-18T08:11:41.298Z,94.13
2022-12-18T08:14:07.847Z,94.44
2022-12-18T08:16:34.413Z,94.28
2022-12-18T08:19:01.079Z,94.46
2022-12-18T08:21:30.104Z,94.65
2022-12-18T08:23:58.594Z,94.31
2022-12-18T08:26:27.987Z,94.39
2022-12-18T08:28:55.978Z,94.31
2022-12-18T08:31:23.451Z,94.54
2022-12-18T08:33:53.218Z,94.44
2022-12-18T08:36:20.956Z,94.62
2022-12-18T08:38:48.097Z,94.43
2022-12-18T08:41:16.790Z,94.77
2022-12-18T08:44:02.222Z,94.42
2022-12-18T08:46:35.127Z,94.86
2022-12-18T08:49:01.835Z,94.22
2022-12-18T08:51:29.264Z,93.92
2022-12-18T08:53:55.720Z,94.33
2022-12-18T08:56:22.128Z,94.85
2022-12-18T08:58:48.784Z,94.51
2022-12-18T09:01:15.377Z,94.01
2022-12-18T09:03:42.675Z,94.78
2022-12-18T09:06:09.363Z,94.52
2022-12-18T09:08:36.034Z,95.06
2022-12-18T09:11:02.462Z,94.67
2022-12-18T09:13:29.636Z,94.52
2022-12-18T09:15:56.667Z,94.86
2022-12-18T09:18:24.999Z,94.93
2022-12-18T09:20:53.330Z,94.99
2022-12-18T09:23:20.454Z,95.15
2022-12-18T09:25:46.862Z,95.12
2022-12-18T09:28:15.607Z,94.84
2022-12-18T09:30:44.499Z,94.93
2022-12-18T09:33:11.626Z,94.83
2022-12-18T09:35:40.783Z,95.13
2022-12-18T09:38:09.591Z,94.97
2022-12-18T09:40:40.830Z,94.95
2022-12-18T09:43:10.576Z,95.02
2022-12-18T09:45:43.967Z,95.17
2022-12-18T09:48:29.060Z,95.04
2022-12-18T09:51:02.643Z,95.39
2022-12-18T09:53:36.089Z,95.43
2022-12-18T09:56:05.588Z,95.07
2022-12-18T09:58:46.142Z,95.26
2022-12-18T10:01:24.018Z,95.02
2022-12-18T10:03:52.746Z,95.36
2022-12-18T10:06:45.442Z,95.00
2022-12-18T10:09:31.614Z,95.12
2022-12-18T10:12:07.679Z,95.20
2022-12-18T10:14:40.083Z,95.17
2022-12-18T10:17:36.652Z,95.36
2022-12-18T10:20:32.984Z,95.04
2022-12-18T10:23:09.060Z,95.11
2022-12-18T10:26:02.774Z,94.92
2022-12-18T10:28:32.210Z,95.07
2022-12-18T10:30:59.769Z,95.09
2022-12-18T10:33:30.880Z,94.90
2022-12-18T10:35:57.342Z,94.88
2022-12-18T10:38:31.683Z,94.90
2022-12-18T10:41:02.989Z,94.70
2022-12-18T10:43:33.356Z,94.39
2022-12-18T10:46:06.589Z,94.37
2022-12-18T10:48:54.821Z,94.44
2022-12-18T10:51:23.278Z,94.75
2022-12-18T10:54:24.981Z,94.10
2022-12-18T10:56:51.590Z,94.20
2022-12-18T10:59:19.100Z,94.52
2022-12-18T11:01:51.705Z,94.36
2022-12-18T11:04:21.731Z,94.05
2022-12-18T11:07:07.897Z,93.89
2022-12-18T11:09:39.333Z,93.62
2022-12-18T11:12:18.583Z,93.74
2022-12-18T11:14:56.927Z,93.46
2022-12-18T11:17:35.903Z,93.66
2022-12-18T11:20:07.911Z,93.44
2022-12-18T11:22:39.193Z,93.19
2022-12-18T11:25:32.689Z,93.05
2022-12-18T11:28:04.033Z,93.00
2022-12-18T11:30:32.902Z,93.24
2022-12-18T11:33:21.783Z,92.70
2022-12-18T11:35:53.609Z,92.65
2022-12-18T11:38:26.422Z,92.59
2022-12-18T11:41:01.618Z,92.30
2022-12-18T11:43:56.701Z,92.44
2022-12-18T11:46:31.545Z,92.26
2022-12-18T11:49:02.315Z,91.77
2022-12-18T11:51:46.030Z,91.75
2022-12-18T11:54:17.017Z,91.99
2022-12-18T11:56:50.743Z,91.54
2022-12-18T11:59:57.376Z,91.23
2022-12-18T12:02:39.918Z,91.89
2022-12-18T12:05:15.527Z,91.77
2022-12-18T12:08:13.035Z,90.80
2022-12-18T12:11:02.765Z,90.80
2022-12-18T12:13:51.010Z,90.87
2022-12-18T12:16:50.270Z,90.38
2022-12-18T12:19:45.212Z,90.29
2022-12-18T12:22:22.525Z,90.15
2022-12-18T12:25:13.156Z,89.98
2022-12-18T12:28:00.250Z,89.95
2022-12-18T12:30:52.764Z,89.71
2022-12-18T12:33:51.560Z,89.83
2022-12-18T12:36:47.087Z,89.61
2022-12-18T12:39:21.677Z,89.68
2022-12-18T12:42:07.427Z,89.54
2022-12-18T12:44:40.377Z,89.23
2022-12-18T12:47:21.589Z,89.34
2022-12-18T12:49:51.642Z,89.17
2022-12-18T12:52:48.547Z,89.02
2022-12-18T12:55:27.758Z,89.17
2022-12-18T12:57:59.363Z,88.74
2022-12-18T13:00:29.367Z,88.82
2022-12-18T13:03:37.844Z,88.76
2022-12-18T13:06:29.888Z,88.81
2022-12-18T13:09:00.575Z,88.64
2022-12-18T13:12:06.620Z,88.15
2022-12-18T13:14:37.209Z,88.44
2022-12-18T13:17:22.949Z,88.03
2022-12-18T13:20:04.345Z,87.65
2022-12-18T13:22:36.603Z,87.65
2022-12-18T13:25:04.176Z,87.93
2022-12-18T13:27:46.210Z,87.57
2022-12-18T13:30:32.310Z,87.76
2022-12-18T13:33:20.751Z,87.64
2022-12-18T13:35:47.552Z,87.01
2022-12-18T13:38:38.830Z,87.20
2022-12-18T13:41:24.853Z,87.46
2022-12-18T13:43:54.209Z,87.09
2022-12-18T13:46:25.267Z,86.80
2022-12-18T13:49:06.222Z,86.35
2022-12-18T13:51:34.888Z,86.71
2022-12-18T13:54:19.627Z,86.73
2022-12-18T13:56:48.077Z,86.71
2022-12-18T13:59:26.361Z,86.18
2022-12-18T14:01:58.757Z,86.44
2022-12-18T14:04:33.918Z,86.06
2022-12-18T14:07:11.745Z,86.56
2022-12-18T14:10:01.976Z,86.11
2022-12-18T14:12:57.766Z,86.22
2022-12-18T14:15:27.377Z,85.43
2022-12-18T14:17:58.087Z,86.07
2022-12-18T14:20:26.609Z,85.98
2022-12-18T14:22:53.063Z,85.87
2022-12-18T14:25:25.074Z,86.10
2022-12-18T14:28:16.159Z,85.51
2022-12-18T14:30:45.068Z,85.66
2022-12-18T14:33:15.104Z,85.04
2022-12-18T14:35:44.442Z,85.55
2022-12-18T14:38:16.868Z,85.72
2022-12-18T14:40:44.390Z,85.18
2022-12-18T14:43:11.932Z,85.62
2022-12-18T14:45:43.579Z,84.93
2022-12-18T14:48:36.687Z,85.05
2022-12-18T14:51:05.212Z,85.26
2022-12-18T14:53:43.059Z,85.27
2022-12-18T14:56:35.934Z,84.56
2022-12-18T14:59:05.964Z,85.03
2022-12-18T15:01:40.125Z,85.15
2022-12-18T15:04:25.915Z,84.91
2022-12-18T15:07:23.274Z,84.61
2022-12-18T15:10:12.548Z,85.50
2022-12-18T15:12:50.578Z,85.58
2022-12-18T15:15:41.345Z,85.34
2022-12-18T15:18:13.765Z,85.12
2022-12-18T15:21:09.251Z,85.62
2022-12-18T15:23:53.024Z,85.19
2022-12-18T15:26:22.289Z,85.03
2022-12-18T15:28:58.539Z,85.19
2022-12-18T15:31:31.012Z,85.14
2022-12-18T15:33:57.664Z,84.74
2022-12-18T15:36:26.329Z,85.22
2022-12-18T15:38:55.493Z,84.89
2022-12-18T15:41:35.200Z,84.58
2022-12-18T15:44:02.629Z,84.35
2022-12-18T15:46:31.591Z,84.77
2022-12-18T15:49:02.354Z,84.85
2022-12-18T15:51:37.037Z,85.16
2022-12-18T15:54:07.056Z,84.91
2022-12-18T15:56:52.488Z,84.95
2022-12-18T15:59:20.998Z,85.49
2022-12-18T16:01:50.092Z,84.76
2022-12-18T16:04:20.977Z,84.50
2022-12-18T16:09:34.414Z,84.78
2022-12-18T16:12:01.004Z,84.84
2022-12-18T16:14:30.290Z,84.73
2022-12-18T16:16:59.983Z,84.76
2022-12-18T16:19:27.120Z,85.00
2022-12-18T16:21:56.461Z,84.85
2022-12-18T16:24:25.887Z,85.32
2022-12-18T16:26:53.657Z,84.80
2022-12-18T16:29:25.892Z,84.80
2022-12-18T16:31:52.525Z,84.12
2022-12-18T16:34:24.942Z,84.68
2022-12-18T16:36:55.570Z,84.50
2022-12-18T16:39:24.656Z,84.85
2022-12-18T16:41:51.766Z,84.79
2022-12-18T16:44:18.422Z,84.55
2022-12-18T16:46:46.365Z,84.79
2022-12-18T16:49:17.453Z,84.72
2022-12-18T16:51:44.765Z,84.38
2022-12-18T16:54:15.939Z,84.56
2022-12-18T16:56:45.381Z,84.19
2022-12-18T16:59:12.791Z,84.74
2022-12-18T17:01:39.567Z,84.23
2022-12-18T17:04:06.972Z,84.17
2022-12-18T17:06:36.161Z,84.35
2022-12-18T17:09:09.463Z,84.33
2022-12-18T17:11:36.181Z,84.03
2022-12-18T17:14:15.652Z,84.25
2022-12-18T17:16:42.619Z,84.13
2022-12-18T17:19:15.198Z,83.96
2022-12-18T17:21:45.070Z,84.15
2022-12-18T17:24:11.679Z,84.33
2022-12-18T17:26:38.309Z,83.82
2022-12-18T17:29:05.309Z,83.75
2022-12-18T17:31:32.326Z,83.39
2022-12-18T17:33:59.251Z,83.98
2022-12-18T17:36:29.157Z,83.64
2022-12-18T17:38:57.815Z,83.77
2022-12-18T17:41:24.835Z,83.20
2022-12-18T17:43:52.939Z,83.91
2022-12-18T17:46:20.097Z,83.89
2022-12-18T17:48:47.131Z,83.78
2022-12-18T17:51:14.729Z,83.91
2022-12-18T17:53:41.926Z,83.86
2022-12-18T17:56:12.672Z,83.82
2022-12-18T17:58:40.124Z,83.36
2022-12-18T18:01:07.505Z,83.82
2022-12-18T18:03:37.467Z,83.28
2022-12-18T18:06:05.150Z,83.67
2022-12-18T18:08:34.636Z,83.62
2022-12-18T18:11:28.143Z,83.66
2022-12-18T18:14:04.598Z,83.95
2022-12-18T18:16:39.151Z,83.73
2022-12-18T18:19:08.207Z,83.58
2022-12-18T18:21:37.687Z,83.82
2022-12-18T18:24:05.434Z,84.09
2022-12-18T18:26:33.358Z,83.69
2022-12-18T18:29:01.071Z,83.42
2022-12-18T18:31:31.210Z,84.19
2022-12-18T18:33:58.086Z,83.77
2022-12-18T18:36:24.707Z,83.48
2022-12-18T18:38:51.713Z,83.88
2022-12-18T18:41:19.668Z,83.18
2022-12-18T18:43:46.320Z,83.65
2022-12-18T18:46:15.070Z,83.08
2022-12-18T18:48:42.997Z,83.62
2022-12-18T18:51:16.539Z,83.49
2022-12-18T18:53:50.422Z,83.02
2022-12-18T18:56:56.667Z,82.98
2022-12-18T18:59:06.343Z,83.03
2022-12-18T19:01:38.640Z,82.97
2022-12-18T19:04:05.350Z,83.24
2022-12-18T19:06:31.823Z,82.81
2022-12-18T19:09:00.812Z,82.99
2022-12-18T19:11:46.210Z,83.11
2022-12-18T19:14:14.819Z,83.09
2022-12-18T19:16:42.036Z,83.06
2022-12-18T19:19:09.407Z,83.30
2022-12-18T19:21:37.307Z,82.63
2022-12-18T19:24:04.605Z,82.39
2022-12-18T19:26:31.021Z,82.29
2022-12-18T19:29:06.092Z,82.39
2022-12-18T19:31:36.094Z,82.21
2022-12-18T19:34:03.984Z,82.63
2022-12-18T19:36:32.794Z,82.96
2022-12-18T19:39:01.697Z,82.95
2022-12-18T19:41:31.192Z,82.67
2022-12-18T19:43:59.722Z,82.61
2022-12-18T19:46:26.319Z,82.67
2022-12-18T19:48:53.065Z,82.66
2022-12-18T19:51:23.105Z,82.44
2022-12-18T19:53:53.669Z,82.66
2022-12-18T19:56:26.793Z,82.89
2022-12-18T19:58:54.609Z,83.11
2022-12-18T20:01:23.020Z,82.81
2022-12-18T20:03:52.384Z,83.67
2022-12-18T20:06:26.272Z,84.08
2022-12-18T20:08:54.030Z,84.42
2022-12-18T20:11:26.850Z,85.17
2022-12-18T20:13:53.278Z,85.43
2022-12-18T20:16:19.915Z,85.75
2022-12-18T20:18:46.431Z,86.27
2022-12-18T20:21:14.193Z,86.70
2022-12-18T20:23:41.257Z,86.70
2022-12-18T20:26:08.765Z,87.47
2022-12-18T20:28:35.818Z,87.44
2022-12-18T20:31:06.403Z,88.11
2022-12-18T20:33:33.264Z,88.24
2022-12-18T20:36:02.292Z,88.75
2022-12-18T20:38:30.293Z,88.96
2022-12-18T20:40:58.085Z,89.29
2022-12-18T20:43:24.842Z,89.12
2022-12-18T20:45:51.340Z,90.09
2022-12-18T20:48:20.089Z,89.95
2022-12-18T20:51:02.059Z,90.53
2022-12-18T20:53:30.455Z,90.47
2022-12-18T20:55:56.844Z,90.41
2022-12-18T20:58:23.865Z,90.86
2022-12-18T21:00:51.104Z,91.26
2022-12-18T21:03:18.871Z,91.12
2022-12-18T21:05:45.404Z,91.56
2022-12-18T21:08:11.907Z,91.65
2022-12-18T21:10:42.409Z,91.98
2022-12-18T21:13:09.543Z,91.62
2022-12-18T21:15:37.745Z,92.33
2022-12-18T21:18:04.456Z,92.51
2022-12-18T21:20:31.271Z,92.67
2022-12-18T21:23:08.563Z,92.76
2022-12-18T21:25:42.816Z,93.13
2022-12-18T21:28:09.266Z,93.03
2022-12-18T21:30:35.725Z,93.07
2022-12-18T21:33:02.184Z,93.18
2022-12-18T21:35:28.625Z,93.38
2022-12-18T21:37:58.503Z,93.52
2022-12-18T21:40:25.069Z,93.68
2022-12-18T21:43:10.239Z,93.98
2022-12-18T21:45:39.659Z,94.13
2022-12-18T21:48:06.231Z,94.18
2022-12-18T21:50:32.634Z,94.39
2022-12-18T21:52:59.008Z,94.19
2022-12-18T21:55:25.633Z,94.22
2022-12-18T21:57:53.728Z,94.78
2022-12-18T22:00:20.213Z,94.44
2022-12-18T22:02:48.344Z,94.65
2022-12-18T22:05:34.396Z,95.00
2022-12-18T22:08:01.484Z,94.79
2022-12-18T22:10:27.868Z,95.14
2022-12-18T22:12:55.113Z,94.89
2022-12-18T22:15:22.035Z,95.17
2022-12-18T22:17:59.818Z,94.95
2022-12-18T22:20:27.147Z,95.21
2022-12-18T22:22:53.699Z,95.70
2022-12-18T22:25:20.136Z,95.74
2022-12-18T22:28:06.778Z,95.46
2022-12-18T22:30:33.551Z,95.77
2022-12-18T22:33:00.249Z,96.26
2022-12-18T22:35:26.729Z,96.25
2022-12-18T22:37:53.207Z,96.24
2022-12-18T22:40:27.261Z,96.13
2022-12-18T22:42:54.512Z,96.16
2022-12-18T22:45:26.040Z,96.78
2022-12-18T22:47:52.480Z,96.56
2022-12-18T22:50:18.921Z,96.43
2022-12-18T22:52:45.391Z,96.51
2022-12-18T22:55:11.831Z,96.70
2022-12-18T22:57:39.572Z,96.78
2022-12-18T23:00:09.579Z,96.98
2022-12-18T23:02:36.235Z,97.35
2022-12-18T23:05:03.044Z,97.35
2022-12-18T23:07:29.631Z,96.98
2022-12-18T23:10:01.108Z,97.44
2022-12-18T23:12:28.048Z,97.10
2022-12-18T23:14:54.576Z,97.54
2022-12-18T23:17:20.958Z,97.49
2022-12-18T23:19:49.381Z,97.61
2022-12-18T23:22:17.221Z,97.51
2022-12-18T23:24:43.608Z,97.89
2022-12-18T23:27:11.928Z,98.05
2022-12-18T23:29:39.444Z,97.69
2022-12-18T23:32:05.916Z,97.73
2022-12-18T23:34:32.662Z,97.64
2022-12-18T23:36:59.151Z,97.47
2022-12-18T23:39:30.068Z,97.99
2022-12-18T23:42:00.686Z,98.02
2022-12-18T23:44:27.488Z,97.67
2022-12-18T23:46:54.112Z,98.10
2022-12-18T23:49:20.637Z,98.04
2022-12-18T23:51:47.109Z,98.54
2022-12-18T23:54:13.642Z,98.09
2022-12-18T23:56:40.055Z,98.05
2022-12-18T23:59:06.529Z,98.32
